sensor_id;sensor_type;location;lat;lon;timestamp;P1;durP1;ratioP1;P2;durP2;ratioP2
19113;SDS011;9689;51.052;13.772;2022-07-29T00:04:02;6.45;;;1.88;;
19113;SDS011;9689;51.052;13.772;2022-07-29T00:09:03;4.88;;;1.17;;
19113;SDS011;9689;51.052;13.772;2022-07-29T00:14:04;6.93;;;1.42;;
19113;SDS011;9689;51.052;13.772;2022-07-29T00:19:06;6.68;;;1.73;;
19113;SDS011;9689;51.052;13.772;2022-07-29T00:24:07;10.32;;;1.83;;
19113;SDS011;9689;51.052;13.772;2022-07-29T00:29:07;4.57;;;1.60;;
19113;SDS011;9689;51.052;13.772;2022-07-29T00:34:30;4.38;;;2.00;;
19113;SDS011;9689;51.052;13.772;2022-07-29T00:39:48;8.30;;;2.05;;
19113;SDS011;9689;51.052;13.772;2022-07-29T00:44:49;5.72;;;2.13;;
19113;SDS011;9689;51.052;13.772;2022-07-29T00:49:51;9.18;;;2.00;;
19113;SDS011;9689;51.052;13.772;2022-07-29T00:54:52;11.20;;;2.83;;
19113;SDS011;9689;51.052;13.772;2022-07-29T00:59:53;9.95;;;2.72;;
19113;SDS011;9689;51.052;13.772;2022-07-29T01:04:55;8.38;;;2.20;;
19113;SDS011;9689;51.052;13.772;2022-07-29T01:09:56;4.38;;;1.80;;
19113;SDS011;9689;51.052;13.772;2022-07-29T01:14:58;9.80;;;2.38;;
19113;SDS011;9689;51.052;13.772;2022-07-29T01:20:05;9.55;;;2.50;;
19113;SDS011;9689;51.052;13.772;2022-07-29T01:25:24;11.05;;;2.42;;
19113;SDS011;9689;51.052;13.772;2022-07-29T01:30:40;8.07;;;2.83;;
19113;SDS011;9689;51.052;13.772;2022-07-29T01:35:44;11.68;;;3.25;;
19113;SDS011;9689;51.052;13.772;2022-07-29T01:40:47;9.45;;;3.55;;
19113;SDS011;9689;51.052;13.772;2022-07-29T01:45:55;15.07;;;3.80;;
19113;SDS011;9689;51.052;13.772;2022-07-29T01:51:01;10.25;;;3.42;;
19113;SDS011;9689;51.052;13.772;2022-07-29T01:56:06;9.45;;;3.65;;
19113;SDS011;9689;51.052;13.772;2022-07-29T02:01:10;7.95;;;4.00;;
19113;SDS011;9689;51.052;13.772;2022-07-29T02:06:14;12.82;;;4.10;;
19113;SDS011;9689;51.052;13.772;2022-07-29T02:11:18;14.40;;;5.53;;
19113;SDS011;9689;51.052;13.772;2022-07-29T02:16:21;20.70;;;6.25;;
19113;SDS011;9689;51.052;13.772;2022-07-29T02:21:24;14.73;;;6.70;;
19113;SDS011;9689;51.052;13.772;2022-07-29T02:26:27;20.95;;;7.20;;
19113;SDS011;9689;51.052;13.772;2022-07-29T02:31:32;21.33;;;8.40;;
19113;SDS011;9689;51.052;13.772;2022-07-29T02:36:34;24.52;;;9.38;;
19113;SDS011;9689;51.052;13.772;2022-07-29T02:41:37;24.95;;;9.98;;
19113;SDS011;9689;51.052;13.772;2022-07-29T02:46:43;27.77;;;11.30;;
19113;SDS011;9689;51.052;13.772;2022-07-29T02:51:49;26.15;;;11.27;;
19113;SDS011;9689;51.052;13.772;2022-07-29T02:56:54;30.15;;;13.05;;
19113;SDS011;9689;51.052;13.772;2022-07-29T03:02:00;31.65;;;14.75;;
19113;SDS011;9689;51.052;13.772;2022-07-29T03:07:02;37.40;;;15.48;;
19113;SDS011;9689;51.052;13.772;2022-07-29T03:12:05;35.83;;;16.67;;
19113;SDS011;9689;51.052;13.772;2022-07-29T03:17:08;45.97;;;19.30;;
19113;SDS011;9689;51.052;13.772;2022-07-29T03:22:10;44.63;;;20.80;;
19113;SDS011;9689;51.052;13.772;2022-07-29T03:27:11;51.20;;;21.52;;
19113;SDS011;9689;51.052;13.772;2022-07-29T03:32:13;49.53;;;23.08;;
19113;SDS011;9689;51.052;13.772;2022-07-29T03:37:22;47.47;;;23.08;;
19113;SDS011;9689;51.052;13.772;2022-07-29T03:42:23;48.67;;;22.13;;
19113;SDS011;9689;51.052;13.772;2022-07-29T03:47:34;58.47;;;25.55;;
19113;SDS011;9689;51.052;13.772;2022-07-29T03:52:49;55.22;;;25.60;;
19113;SDS011;9689;51.052;13.772;2022-07-29T03:57:50;63.90;;;25.08;;
19113;SDS011;9689;51.052;13.772;2022-07-29T04:02:52;49.05;;;24.48;;
19113;SDS011;9689;51.052;13.772;2022-07-29T04:07:53;44.13;;;22.25;;
19113;SDS011;9689;51.052;13.772;2022-07-29T04:12:53;44.08;;;22.23;;
19113;SDS011;9689;51.052;13.772;2022-07-29T04:17:55;45.60;;;20.88;;
19113;SDS011;9689;51.052;13.772;2022-07-29T04:22:56;35.90;;;18.60;;
19113;SDS011;9689;51.052;13.772;2022-07-29T04:27:57;49.80;;;19.80;;
19113;SDS011;9689;51.052;13.772;2022-07-29T04:33:02;37.22;;;19.05;;
19113;SDS011;9689;51.052;13.772;2022-07-29T04:38:05;41.88;;;17.88;;
19113;SDS011;9689;51.052;13.772;2022-07-29T04:43:15;39.63;;;18.13;;
19113;SDS011;9689;51.052;13.772;2022-07-29T04:48:22;34.30;;;17.05;;
19113;SDS011;9689;51.052;13.772;2022-07-29T04:53:27;33.70;;;15.45;;
19113;SDS011;9689;51.052;13.772;2022-07-29T04:58:27;38.20;;;15.75;;
19113;SDS011;9689;51.052;13.772;2022-07-29T05:03:30;43.20;;;16.73;;
19113;SDS011;9689;51.052;13.772;2022-07-29T05:08:30;36.10;;;15.88;;
19113;SDS011;9689;51.052;13.772;2022-07-29T05:13:31;35.83;;;14.63;;
19113;SDS011;9689;51.052;13.772;2022-07-29T05:18:45;27.77;;;13.48;;
19113;SDS011;9689;51.052;13.772;2022-07-29T05:23:47;27.33;;;13.35;;
19113;SDS011;9689;51.052;13.772;2022-07-29T05:28:48;33.72;;;14.70;;
19113;SDS011;9689;51.052;13.772;2022-07-29T05:33:50;34.20;;;15.38;;
19113;SDS011;9689;51.052;13.772;2022-07-29T05:38:50;35.17;;;17.15;;
19113;SDS011;9689;51.052;13.772;2022-07-29T05:43:51;30.20;;;14.80;;
19113;SDS011;9689;51.052;13.772;2022-07-29T05:48:53;32.78;;;16.23;;
19113;SDS011;9689;51.052;13.772;2022-07-29T05:53:54;28.15;;;14.85;;
19113;SDS011;9689;51.052;13.772;2022-07-29T05:58:55;36.75;;;17.33;;
19113;SDS011;9689;51.052;13.772;2022-07-29T06:03:57;44.25;;;17.00;;
19113;SDS011;9689;51.052;13.772;2022-07-29T06:08:57;33.95;;;17.08;;
19113;SDS011;9689;51.052;13.772;2022-07-29T06:14:10;37.08;;;16.65;;
19113;SDS011;9689;51.052;13.772;2022-07-29T06:19:13;39.08;;;17.25;;
19113;SDS011;9689;51.052;13.772;2022-07-29T06:24:14;38.63;;;17.27;;
19113;SDS011;9689;51.052;13.772;2022-07-29T06:29:15;39.40;;;17.55;;
19113;SDS011;9689;51.052;13.772;2022-07-29T06:34:18;35.05;;;16.33;;
19113;SDS011;9689;51.052;13.772;2022-07-29T06:39:19;36.42;;;15.35;;
19113;SDS011;9689;51.052;13.772;2022-07-29T06:44:19;41.50;;;16.15;;
19113;SDS011;9689;51.052;13.772;2022-07-29T06:49:21;41.55;;;16.17;;
19113;SDS011;9689;51.052;13.772;2022-07-29T06:54:25;41.10;;;17.20;;
19113;SDS011;9689;51.052;13.772;2022-07-29T06:59:25;37.83;;;15.95;;
19113;SDS011;9689;51.052;13.772;2022-07-29T07:04:35;33.17;;;13.77;;
19113;SDS011;9689;51.052;13.772;2022-07-29T07:09:35;35.08;;;16.63;;
19113;SDS011;9689;51.052;13.772;2022-07-29T07:14:42;31.83;;;15.38;;
19113;SDS011;9689;51.052;13.772;2022-07-29T07:19:44;32.13;;;14.15;;
19113;SDS011;9689;51.052;13.772;2022-07-29T07:24:45;33.40;;;14.80;;
19113;SDS011;9689;51.052;13.772;2022-07-29T07:35:45;28.50;;;11.48;;
19113;SDS011;9689;51.052;13.772;2022-07-29T07:40:46;30.23;;;9.90;;
19113;SDS011;9689;51.052;13.772;2022-07-29T07:45:47;30.38;;;10.93;;
19113;SDS011;9689;51.052;13.772;2022-07-29T07:51:02;27.88;;;10.10;;
19113;SDS011;9689;51.052;13.772;2022-07-29T07:56:03;25.25;;;12.02;;
19113;SDS011;9689;51.052;13.772;2022-07-29T08:01:10;21.85;;;9.43;;
19113;SDS011;9689;51.052;13.772;2022-07-29T08:06:13;17.90;;;8.90;;
19113;SDS011;9689;51.052;13.772;2022-07-29T08:11:13;22.83;;;9.60;;
19113;SDS011;9689;51.052;13.772;2022-07-29T08:16:14;24.42;;;9.48;;
19113;SDS011;9689;51.052;13.772;2022-07-29T08:21:16;21.80;;;9.43;;
19113;SDS011;9689;51.052;13.772;2022-07-29T08:26:18;22.67;;;9.07;;
19113;SDS011;9689;51.052;13.772;2022-07-29T08:31:20;16.65;;;7.93;;
19113;SDS011;9689;51.052;13.772;2022-07-29T08:36:22;20.95;;;8.35;;
19113;SDS011;9689;51.052;13.772;2022-07-29T08:41:23;17.02;;;8.30;;
19113;SDS011;9689;51.052;13.772;2022-07-29T08:46:24;20.67;;;9.02;;
19113;SDS011;9689;51.052;13.772;2022-07-29T08:51:26;26.45;;;8.82;;
19113;SDS011;9689;51.052;13.772;2022-07-29T08:56:28;15.77;;;7.28;;
19113;SDS011;9689;51.052;13.772;2022-07-29T09:01:30;18.33;;;8.45;;
19113;SDS011;9689;51.052;13.772;2022-07-29T09:06:45;19.50;;;8.60;;
19113;SDS011;9689;51.052;13.772;2022-07-29T09:11:47;22.77;;;7.68;;
19113;SDS011;9689;51.052;13.772;2022-07-29T09:16:52;19.13;;;7.13;;
19113;SDS011;9689;51.052;13.772;2022-07-29T09:21:56;15.23;;;7.75;;
19113;SDS011;9689;51.052;13.772;2022-07-29T09:27:02;14.20;;;6.97;;
19113;SDS011;9689;51.052;13.772;2022-07-29T09:32:02;16.90;;;8.27;;
19113;SDS011;9689;51.052;13.772;2022-07-29T09:37:08;14.38;;;7.95;;
19113;SDS011;9689;51.052;13.772;2022-07-29T09:42:08;20.10;;;7.82;;
19113;SDS011;9689;51.052;13.772;2022-07-29T09:47:09;16.73;;;7.50;;
19113;SDS011;9689;51.052;13.772;2022-07-29T09:52:11;14.70;;;7.63;;
19113;SDS011;9689;51.052;13.772;2022-07-29T09:57:22;13.70;;;8.15;;
19113;SDS011;9689;51.052;13.772;2022-07-29T10:02:30;13.38;;;8.07;;
19113;SDS011;9689;51.052;13.772;2022-07-29T10:07:46;19.85;;;8.68;;
19113;SDS011;9689;51.052;13.772;2022-07-29T10:12:53;18.20;;;9.20;;
19113;SDS011;9689;51.052;13.772;2022-07-29T10:17:58;18.75;;;8.43;;
19113;SDS011;9689;51.052;13.772;2022-07-29T10:23:01;17.98;;;7.68;;
19113;SDS011;9689;51.052;13.772;2022-07-29T10:28:02;17.58;;;8.00;;
19113;SDS011;9689;51.052;13.772;2022-07-29T10:33:09;15.65;;;6.13;;
19113;SDS011;9689;51.052;13.772;2022-07-29T10:38:30;11.43;;;5.07;;
19113;SDS011;9689;51.052;13.772;2022-07-29T10:43:44;9.73;;;4.90;;
19113;SDS011;9689;51.052;13.772;2022-07-29T10:49:05;7.93;;;3.63;;
19113;SDS011;9689;51.052;13.772;2022-07-29T10:54:10;7.90;;;2.20;;
19113;SDS011;9689;51.052;13.772;2022-07-29T10:59:24;8.48;;;2.78;;
19113;SDS011;9689;51.052;13.772;2022-07-29T11:15:29;7.20;;;2.10;;
19113;SDS011;9689;51.052;13.772;2022-07-29T11:20:53;2.72;;;1.98;;
19113;SDS011;9689;51.052;13.772;2022-07-29T11:26:13;3.85;;;1.95;;
19113;SDS011;9689;51.052;13.772;2022-07-29T11:31:19;6.75;;;2.20;;
19113;SDS011;9689;51.052;13.772;2022-07-29T11:36:32;4.10;;;1.92;;
19113;SDS011;9689;51.052;13.772;2022-07-29T11:41:34;3.17;;;2.13;;
19113;SDS011;9689;51.052;13.772;2022-07-29T11:46:42;2.90;;;2.10;;
19113;SDS011;9689;51.052;13.772;2022-07-29T11:51:49;5.13;;;2.00;;
19113;SDS011;9689;51.052;13.772;2022-07-29T11:56:52;5.75;;;2.00;;
19113;SDS011;9689;51.052;13.772;2022-07-29T12:01:54;5.30;;;2.42;;
19113;SDS011;9689;51.052;13.772;2022-07-29T12:07:16;3.33;;;1.88;;
19113;SDS011;9689;51.052;13.772;2022-07-29T12:12:20;4.60;;;2.30;;
19113;SDS011;9689;51.052;13.772;2022-07-29T12:17:25;3.45;;;2.20;;
19113;SDS011;9689;51.052;13.772;2022-07-29T12:22:29;5.88;;;2.30;;
19113;SDS011;9689;51.052;13.772;2022-07-29T12:27:32;3.60;;;2.17;;
19113;SDS011;9689;51.052;13.772;2022-07-29T12:32:39;4.90;;;2.17;;
19113;SDS011;9689;51.052;13.772;2022-07-29T12:37:42;5.45;;;2.20;;
19113;SDS011;9689;51.052;13.772;2022-07-29T12:48:08;7.38;;;3.33;;
19113;SDS011;9689;51.052;13.772;2022-07-29T12:53:09;3.28;;;2.22;;
19113;SDS011;9689;51.052;13.772;2022-07-29T12:58:14;4.85;;;2.65;;
19113;SDS011;9689;51.052;13.772;2022-07-29T13:03:25;3.80;;;2.53;;
19113;SDS011;9689;51.052;13.772;2022-07-29T13:08:26;3.90;;;2.50;;
19113;SDS011;9689;51.052;13.772;2022-07-29T13:13:29;4.22;;;2.40;;
19113;SDS011;9689;51.052;13.772;2022-07-29T13:18:30;3.38;;;2.22;;
19113;SDS011;9689;51.052;13.772;2022-07-29T13:23:32;3.50;;;1.80;;
19113;SDS011;9689;51.052;13.772;2022-07-29T13:28:38;5.00;;;2.30;;
19113;SDS011;9689;51.052;13.772;2022-07-29T13:33:42;2.63;;;1.77;;
19113;SDS011;9689;51.052;13.772;2022-07-29T13:38:43;4.30;;;2.20;;
19113;SDS011;9689;51.052;13.772;2022-07-29T13:43:45;9.02;;;1.95;;
19113;SDS011;9689;51.052;13.772;2022-07-29T13:48:48;4.53;;;2.20;;
19113;SDS011;9689;51.052;13.772;2022-07-29T13:53:49;3.15;;;1.77;;
19113;SDS011;9689;51.052;13.772;2022-07-29T13:58:51;3.75;;;1.90;;
19113;SDS011;9689;51.052;13.772;2022-07-29T14:03:52;4.65;;;2.05;;
19113;SDS011;9689;51.052;13.772;2022-07-29T14:08:54;4.63;;;1.85;;
19113;SDS011;9689;51.052;13.772;2022-07-29T14:13:56;5.05;;;1.70;;
19113;SDS011;9689;51.052;13.772;2022-07-29T14:18:57;5.05;;;2.58;;
19113;SDS011;9689;51.052;13.772;2022-07-29T14:23:57;4.32;;;2.33;;
19113;SDS011;9689;51.052;13.772;2022-07-29T14:28:59;8.65;;;2.10;;
19113;SDS011;9689;51.052;13.772;2022-07-29T14:34:00;2.28;;;2.00;;
19113;SDS011;9689;51.052;13.772;2022-07-29T14:39:01;3.15;;;2.20;;
19113;SDS011;9689;51.052;13.772;2022-07-29T14:44:03;7.45;;;2.25;;
19113;SDS011;9689;51.052;13.772;2022-07-29T14:49:04;6.22;;;2.25;;
19113;SDS011;9689;51.052;13.772;2022-07-29T14:54:07;4.10;;;2.42;;
19113;SDS011;9689;51.052;13.772;2022-07-29T14:59:10;4.82;;;2.67;;
19113;SDS011;9689;51.052;13.772;2022-07-29T15:04:10;11.43;;;3.22;;
19113;SDS011;9689;51.052;13.772;2022-07-29T15:09:11;5.22;;;2.80;;
19113;SDS011;9689;51.052;13.772;2022-07-29T15:14:13;4.75;;;2.25;;
19113;SDS011;9689;51.052;13.772;2022-07-29T15:19:14;8.05;;;3.97;;
19113;SDS011;9689;51.052;13.772;2022-07-29T15:24:15;10.20;;;4.18;;
19113;SDS011;9689;51.052;13.772;2022-07-29T15:29:17;10.13;;;5.38;;
19113;SDS011;9689;51.052;13.772;2022-07-29T15:34:18;7.15;;;4.45;;
19113;SDS011;9689;51.052;13.772;2022-07-29T15:39:20;13.05;;;5.55;;
19113;SDS011;9689;51.052;13.772;2022-07-29T15:44:22;11.80;;;5.45;;
19113;SDS011;9689;51.052;13.772;2022-07-29T15:49:23;13.00;;;6.30;;
19113;SDS011;9689;51.052;13.772;2022-07-29T15:54:47;20.02;;;7.30;;
19113;SDS011;9689;51.052;13.772;2022-07-29T15:59:49;15.75;;;7.65;;
19113;SDS011;9689;51.052;13.772;2022-07-29T16:04:50;21.30;;;7.95;;
19113;SDS011;9689;51.052;13.772;2022-07-29T16:09:50;17.25;;;8.40;;
19113;SDS011;9689;51.052;13.772;2022-07-29T16:14:53;22.15;;;9.05;;
19113;SDS011;9689;51.052;13.772;2022-07-29T16:19:53;15.77;;;8.50;;
19113;SDS011;9689;51.052;13.772;2022-07-29T16:24:54;13.93;;;8.10;;
19113;SDS011;9689;51.052;13.772;2022-07-29T16:29:56;14.80;;;8.10;;
19113;SDS011;9689;51.052;13.772;2022-07-29T16:34:59;13.85;;;7.88;;
19113;SDS011;9689;51.052;13.772;2022-07-29T16:40:01;14.25;;;7.75;;
19113;SDS011;9689;51.052;13.772;2022-07-29T16:45:04;16.98;;;7.80;;
19113;SDS011;9689;51.052;13.772;2022-07-29T16:50:06;13.55;;;6.82;;
19113;SDS011;9689;51.052;13.772;2022-07-29T16:55:07;10.52;;;6.00;;
19113;SDS011;9689;51.052;13.772;2022-07-29T17:00:10;9.73;;;5.55;;
19113;SDS011;9689;51.052;13.772;2022-07-29T17:05:13;9.18;;;5.07;;
19113;SDS011;9689;51.052;13.772;2022-07-29T17:10:14;8.05;;;4.63;;
19113;SDS011;9689;51.052;13.772;2022-07-29T17:15:16;9.05;;;3.97;;
19113;SDS011;9689;51.052;13.772;2022-07-29T17:20:17;5.22;;;3.60;;
19113;SDS011;9689;51.052;13.772;2022-07-29T17:25:18;9.38;;;3.88;;
19113;SDS011;9689;51.052;13.772;2022-07-29T17:30:21;3.78;;;2.78;;
19113;SDS011;9689;51.052;13.772;2022-07-29T17:35:21;6.45;;;2.85;;
19113;SDS011;9689;51.052;13.772;2022-07-29T17:40:40;6.20;;;3.30;;
19113;SDS011;9689;51.052;13.772;2022-07-29T17:45:42;4.50;;;2.65;;
19113;SDS011;9689;51.052;13.772;2022-07-29T17:50:49;3.50;;;2.40;;
19113;SDS011;9689;51.052;13.772;2022-07-29T17:55:50;7.53;;;2.75;;
19113;SDS011;9689;51.052;13.772;2022-07-29T18:00:52;7.50;;;2.83;;
19113;SDS011;9689;51.052;13.772;2022-07-29T18:05:52;4.07;;;2.13;;
19113;SDS011;9689;51.052;13.772;2022-07-29T18:10:53;8.82;;;2.47;;
19113;SDS011;9689;51.052;13.772;2022-07-29T18:15:55;5.95;;;2.78;;
19113;SDS011;9689;51.052;13.772;2022-07-29T18:20:59;6.60;;;2.40;;
19113;SDS011;9689;51.052;13.772;2022-07-29T18:26:00;3.88;;;2.40;;
19113;SDS011;9689;51.052;13.772;2022-07-29T18:31:02;7.75;;;2.67;;
19113;SDS011;9689;51.052;13.772;2022-07-29T18:36:03;4.68;;;2.67;;
19113;SDS011;9689;51.052;13.772;2022-07-29T18:41:10;5.65;;;2.70;;
19113;SDS011;9689;51.052;13.772;2022-07-29T18:46:12;4.45;;;2.78;;
19113;SDS011;9689;51.052;13.772;2022-07-29T18:51:12;6.55;;;2.95;;
19113;SDS011;9689;51.052;13.772;2022-07-29T18:56:14;7.65;;;2.78;;
19113;SDS011;9689;51.052;13.772;2022-07-29T19:01:16;4.40;;;2.80;;
19113;SDS011;9689;51.052;13.772;2022-07-29T19:06:17;6.93;;;2.47;;
19113;SDS011;9689;51.052;13.772;2022-07-29T19:11:23;7.88;;;2.67;;
19113;SDS011;9689;51.052;13.772;2022-07-29T19:16:25;7.38;;;2.60;;
19113;SDS011;9689;51.052;13.772;2022-07-29T19:21:26;7.32;;;2.50;;
19113;SDS011;9689;51.052;13.772;2022-07-29T19:26:27;4.88;;;2.80;;
19113;SDS011;9689;51.052;13.772;2022-07-29T19:31:29;9.60;;;3.70;;
19113;SDS011;9689;51.052;13.772;2022-07-29T19:36:30;4.40;;;2.63;;
19113;SDS011;9689;51.052;13.772;2022-07-29T19:41:31;5.32;;;2.88;;
19113;SDS011;9689;51.052;13.772;2022-07-29T19:46:34;7.97;;;3.17;;
19113;SDS011;9689;51.052;13.772;2022-07-29T19:51:34;5.10;;;2.97;;
19113;SDS011;9689;51.052;13.772;2022-07-29T19:56:36;6.65;;;3.42;;
19113;SDS011;9689;51.052;13.772;2022-07-29T20:01:41;7.57;;;3.08;;
19113;SDS011;9689;51.052;13.772;2022-07-29T20:06:42;4.93;;;3.50;;
19113;SDS011;9689;51.052;13.772;2022-07-29T20:11:43;4.68;;;3.08;;
19113;SDS011;9689;51.052;13.772;2022-07-29T20:16:45;4.60;;;2.70;;
19113;SDS011;9689;51.052;13.772;2022-07-29T20:21:46;6.80;;;2.70;;
19113;SDS011;9689;51.052;13.772;2022-07-29T20:26:47;6.18;;;3.20;;
19113;SDS011;9689;51.052;13.772;2022-07-29T20:31:50;7.15;;;2.60;;
19113;SDS011;9689;51.052;13.772;2022-07-29T20:36:54;5.30;;;2.67;;
19113;SDS011;9689;51.052;13.772;2022-07-29T20:41:56;6.07;;;2.40;;
19113;SDS011;9689;51.052;13.772;2022-07-29T20:46:58;5.00;;;3.30;;
19113;SDS011;9689;51.052;13.772;2022-07-29T20:51:59;4.80;;;3.08;;
19113;SDS011;9689;51.052;13.772;2022-07-29T20:57:00;4.82;;;3.15;;
19113;SDS011;9689;51.052;13.772;2022-07-29T21:02:02;5.05;;;3.47;;
19113;SDS011;9689;51.052;13.772;2022-07-29T21:07:03;5.57;;;3.28;;
19113;SDS011;9689;51.052;13.772;2022-07-29T21:12:04;6.45;;;3.15;;
19113;SDS011;9689;51.052;13.772;2022-07-29T21:17:07;6.50;;;3.05;;
19113;SDS011;9689;51.052;13.772;2022-07-29T21:22:08;3.95;;;2.80;;
19113;SDS011;9689;51.052;13.772;2022-07-29T21:27:09;8.20;;;3.05;;
19113;SDS011;9689;51.052;13.772;2022-07-29T21:32:28;7.47;;;3.00;;
19113;SDS011;9689;51.052;13.772;2022-07-29T21:37:29;10.57;;;3.30;;
19113;SDS011;9689;51.052;13.772;2022-07-29T21:42:30;5.07;;;3.00;;
19113;SDS011;9689;51.052;13.772;2022-07-29T21:47:32;5.78;;;2.85;;
19113;SDS011;9689;51.052;13.772;2022-07-29T21:52:32;12.68;;;3.58;;
19113;SDS011;9689;51.052;13.772;2022-07-29T21:57:35;9.50;;;3.55;;
19113;SDS011;9689;51.052;13.772;2022-07-29T22:02:37;8.38;;;3.33;;
19113;SDS011;9689;51.052;13.772;2022-07-29T22:07:39;9.25;;;3.60;;
19113;SDS011;9689;51.052;13.772;2022-07-29T22:12:54;4.30;;;2.97;;
19113;SDS011;9689;51.052;13.772;2022-07-29T22:17:58;8.18;;;3.22;;
19113;SDS011;9689;51.052;13.772;2022-07-29T22:22:58;6.28;;;3.55;;
19113;SDS011;9689;51.052;13.772;2022-07-29T22:27:59;9.88;;;3.35;;
19113;SDS011;9689;51.052;13.772;2022-07-29T22:33:01;7.63;;;3.13;;
19113;SDS011;9689;51.052;13.772;2022-07-29T22:38:02;7.47;;;3.60;;
19113;SDS011;9689;51.052;13.772;2022-07-29T22:43:02;5.15;;;3.17;;
19113;SDS011;9689;51.052;13.772;2022-07-29T22:48:05;7.25;;;3.55;;
19113;SDS011;9689;51.052;13.772;2022-07-29T22:53:05;5.05;;;3.30;;
19113;SDS011;9689;51.052;13.772;2022-07-29T22:58:06;4.90;;;3.10;;
19113;SDS011;9689;51.052;13.772;2022-07-29T23:03:08;5.88;;;3.60;;
19113;SDS011;9689;51.052;13.772;2022-07-29T23:08:09;7.00;;;3.60;;
19113;SDS011;9689;51.052;13.772;2022-07-29T23:13:09;6.65;;;3.55;;
19113;SDS011;9689;51.052;13.772;2022-07-29T23:18:11;12.43;;;4.13;;
19113;SDS011;9689;51.052;13.772;2022-07-29T23:23:12;7.53;;;3.50;;
19113;SDS011;9689;51.052;13.772;2022-07-29T23:28:13;7.95;;;4.35;;
19113;SDS011;9689;51.052;13.772;2022-07-29T23:33:15;5.13;;;3.45;;
19113;SDS011;9689;51.052;13.772;2022-07-29T23:38:15;10.63;;;4.00;;
19113;SDS011;9689;51.052;13.772;2022-07-29T23:43:16;7.60;;;4.00;;
19113;SDS011;9689;51.052;13.772;2022-07-29T23:48:18;11.68;;;5.90;;
19113;SDS011;9689;51.052;13.772;2022-07-29T23:53:19;13.63;;;6.70;;
19113;SDS011;9689;51.052;13.772;2022-07-29T23:58:20;10.50;;;6.07;;
